JBU1084 KMEM-KJFK
Flight info
| Callsign | JBU1084 |
|---|---|
| Flight time | N/A |
| Altitude | 35000 |
| Route | GOETZ7 DIYAB HITMN Q34 MAULS QUART HURTS SAWED Q108 SIE CAMRN5 |
| Aircraft | A321/M-SDE3FGHIRWY/LB1 |
Departure
| Time | N/A |
|---|---|
| Airport | Memphis International Airport (KMEM) |
Arrival
| Time | 2026-05-05 03:54 |
|---|---|
| Airport | John F. Kennedy International Airport (KJFK) |
| Time | Latitude | Longitude | Altitude | Speed | Heading |
|---|---|---|---|---|---|
| 2026-05-05 01:40 | 32.20703 | -88.32223 | 34999 ft | 435 kts | 19° |
| 2026-05-05 01:40 | 32.23268 | -88.30474 | 35002 ft | 418 kts | 10° |
| 2026-05-05 01:40 | 32.25932 | -88.29270 | 35003 ft | 406 kts | 5° |
| 2026-05-05 01:41 | 32.31308 | -88.27171 | 35003 ft | 408 kts | 5° |
| 2026-05-05 01:41 | 32.36694 | -88.25032 | 35042 ft | 409 kts | 5° |
| 2026-05-05 01:42 | 32.42090 | -88.22880 | 35030 ft | 410 kts | 5° |
| 2026-05-05 01:42 | 32.47463 | -88.20742 | 35025 ft | 410 kts | 5° |
| 2026-05-05 01:43 | 32.52807 | -88.17964 | 35023 ft | 429 kts | 16° |
| 2026-05-05 01:43 | 32.57978 | -88.14399 | 35018 ft | 431 kts | 17° |
| 2026-05-05 01:44 | 32.63144 | -88.10784 | 35010 ft | 431 kts | 17° |
| 2026-05-05 01:44 | 32.68302 | -88.07179 | 35013 ft | 431 kts | 17° |
| 2026-05-05 01:45 | 32.73510 | -88.03570 | 35004 ft | 437 kts | 17° |
| 2026-05-05 01:45 | 32.78804 | -87.99897 | 35009 ft | 443 kts | 17° |
| 2026-05-05 01:46 | 32.84120 | -87.96168 | 34993 ft | 444 kts | 17° |
| 2026-05-05 01:46 | 32.89441 | -87.92430 | 35005 ft | 443 kts | 16° |
| 2026-05-05 01:47 | 32.94723 | -87.88739 | 34995 ft | 443 kts | 16° |
| 2026-05-05 01:47 | 33.00081 | -87.84984 | 34994 ft | 444 kts | 16° |
| 2026-05-05 01:48 | 33.05371 | -87.81272 | 34997 ft | 444 kts | 16° |
| 2026-05-05 01:48 | 33.10698 | -87.77528 | 35001 ft | 445 kts | 16° |
| 2026-05-05 01:49 | 33.16020 | -87.73774 | 35032 ft | 444 kts | 16° |
| 2026-05-05 01:49 | 33.21340 | -87.70023 | 35021 ft | 444 kts | 16° |
| 2026-05-05 01:50 | 33.26644 | -87.66272 | 34992 ft | 442 kts | 16° |
| 2026-05-05 01:50 | 33.31944 | -87.62530 | 34996 ft | 443 kts | 16° |
| 2026-05-05 01:51 | 33.37253 | -87.58784 | 34995 ft | 443 kts | 16° |
| 2026-05-05 01:51 | 33.42565 | -87.55012 | 34994 ft | 444 kts | 16° |
| 2026-05-05 01:52 | 33.47877 | -87.51240 | 34987 ft | 444 kts | 16° |
| 2026-05-05 01:52 | 33.53188 | -87.47464 | 34984 ft | 444 kts | 16° |
| 2026-05-05 01:53 | 33.58506 | -87.43679 | 34984 ft | 445 kts | 17° |
| 2026-05-05 01:53 | 33.63820 | -87.39875 | 34984 ft | 445 kts | 17° |
| 2026-05-05 01:54 | 33.69138 | -87.36073 | 34973 ft | 445 kts | 17° |
| 2026-05-05 01:54 | 33.74455 | -87.32274 | 34986 ft | 445 kts | 18° |
| 2026-05-05 01:55 | 33.79797 | -87.28457 | 35010 ft | 448 kts | 18° |
| 2026-05-05 01:55 | 33.85155 | -87.24611 | 35009 ft | 449 kts | 18° |
| 2026-05-05 01:56 | 33.90525 | -87.20752 | 35014 ft | 450 kts | 18° |
| 2026-05-05 01:56 | 33.95904 | -87.16888 | 35003 ft | 451 kts | 19° |
| 2026-05-05 01:57 | 34.01296 | -87.13005 | 35013 ft | 451 kts | 19° |
| 2026-05-05 01:57 | 34.06688 | -87.09114 | 35027 ft | 452 kts | 19° |
| 2026-05-05 01:58 | 34.12084 | -87.05210 | 35030 ft | 452 kts | 19° |
| 2026-05-05 01:58 | 34.17483 | -87.01293 | 35034 ft | 453 kts | 19° |
| 2026-05-05 01:59 | 34.22842 | -86.97407 | 35024 ft | 452 kts | 20° |
| 2026-05-05 01:59 | 34.28229 | -86.93495 | 35044 ft | 452 kts | 20° |
| 2026-05-05 02:00 | 34.33631 | -86.89572 | 35042 ft | 453 kts | 20° |
| 2026-05-05 02:00 | 34.39038 | -86.85632 | 35030 ft | 454 kts | 20° |
| 2026-05-05 02:01 | 34.44452 | -86.81686 | 35056 ft | 454 kts | 21° |
| 2026-05-05 02:01 | 34.49868 | -86.77733 | 35020 ft | 455 kts | 21° |
| 2026-05-05 02:02 | 34.55294 | -86.73764 | 35019 ft | 455 kts | 21° |
| 2026-05-05 02:02 | 34.60720 | -86.69789 | 35011 ft | 456 kts | 21° |
| 2026-05-05 02:03 | 34.66123 | -86.65825 | 35011 ft | 456 kts | 21° |
| 2026-05-05 02:03 | 34.71552 | -86.61834 | 35007 ft | 455 kts | 21° |
| 2026-05-05 02:04 | 34.76966 | -86.57848 | 35014 ft | 455 kts | 21° |
| 2026-05-05 02:04 | 34.82394 | -86.53851 | 35011 ft | 457 kts | 22° |
| 2026-05-05 02:05 | 34.87834 | -86.49832 | 35009 ft | 458 kts | 22° |
| 2026-05-05 02:05 | 34.93277 | -86.45795 | 35011 ft | 458 kts | 22° |
| 2026-05-05 02:06 | 34.98737 | -86.41756 | 35021 ft | 460 kts | 23° |
| 2026-05-05 02:06 | 35.04213 | -86.37707 | 35012 ft | 461 kts | 23° |
| 2026-05-05 02:07 | 35.09693 | -86.33639 | 35011 ft | 461 kts | 23° |
| 2026-05-05 02:07 | 35.14246 | -86.30246 | 35014 ft | 462 kts | 23° |
| 2026-05-05 02:08 | 35.19730 | -86.26144 | 35029 ft | 462 kts | 24° |
| 2026-05-05 02:08 | 35.25223 | -86.22037 | 35020 ft | 463 kts | 24° |
| 2026-05-05 02:09 | 35.30731 | -86.17922 | 35030 ft | 464 kts | 24° |
| 2026-05-05 02:09 | 35.36250 | -86.13799 | 35014 ft | 465 kts | 25° |
| 2026-05-05 02:10 | 35.41773 | -86.09660 | 35010 ft | 466 kts | 25° |
| 2026-05-05 02:10 | 35.47306 | -86.05501 | 35019 ft | 467 kts | 25° |
| 2026-05-05 02:11 | 35.52847 | -86.01329 | 35010 ft | 468 kts | 25° |
| 2026-05-05 02:11 | 35.58399 | -85.97141 | 35006 ft | 468 kts | 25° |
| 2026-05-05 02:12 | 35.66744 | -85.90840 | 34984 ft | 471 kts | 25° |
| 2026-05-05 02:13 | 35.72338 | -85.86600 | 34997 ft | 473 kts | 26° |
| 2026-05-05 02:13 | 35.77949 | -85.82341 | 34987 ft | 475 kts | 26° |
| 2026-05-05 02:14 | 35.83580 | -85.78064 | 34995 ft | 476 kts | 26° |
| 2026-05-05 02:14 | 35.89224 | -85.73784 | 34980 ft | 476 kts | 26° |
| 2026-05-05 02:15 | 35.94859 | -85.69503 | 34982 ft | 476 kts | 26° |
| 2026-05-05 02:15 | 36.00487 | -85.65201 | 34979 ft | 476 kts | 26° |
| 2026-05-05 02:16 | 36.06117 | -85.60884 | 34981 ft | 476 kts | 26° |
| 2026-05-05 02:16 | 36.11745 | -85.56560 | 34991 ft | 477 kts | 26° |
| 2026-05-05 02:17 | 36.17385 | -85.52233 | 35013 ft | 478 kts | 26° |
| 2026-05-05 02:17 | 36.23001 | -85.47923 | 35002 ft | 479 kts | 26° |
| 2026-05-05 02:18 | 36.28700 | -85.43542 | 34994 ft | 479 kts | 26° |
| 2026-05-05 02:18 | 36.34368 | -85.39174 | 34999 ft | 480 kts | 26° |
| 2026-05-05 02:19 | 36.39998 | -85.34825 | 34984 ft | 480 kts | 26° |
| 2026-05-05 02:19 | 36.42717 | -85.32372 | 34966 ft | 488 kts | 38° |
| 2026-05-05 02:19 | 36.44911 | -85.29112 | 34951 ft | 498 kts | 53° |
| 2026-05-05 02:20 | 36.48566 | -85.21757 | 34962 ft | 501 kts | 54° |
| 2026-05-05 02:20 | 36.52207 | -85.14306 | 34962 ft | 501 kts | 54° |
| 2026-05-05 02:21 | 36.55822 | -85.06894 | 34956 ft | 501 kts | 54° |
| 2026-05-05 02:21 | 36.59418 | -84.99531 | 34957 ft | 501 kts | 54° |
| 2026-05-05 02:22 | 36.63034 | -84.92114 | 34970 ft | 501 kts | 54° |
| 2026-05-05 02:22 | 36.66654 | -84.84687 | 34959 ft | 502 kts | 54° |
| 2026-05-05 02:23 | 36.70279 | -84.77240 | 34963 ft | 503 kts | 54° |
| 2026-05-05 02:23 | 36.73895 | -84.69776 | 34975 ft | 503 kts | 54° |
| 2026-05-05 02:24 | 36.77510 | -84.62294 | 34980 ft | 504 kts | 55° |
| 2026-05-05 02:24 | 36.80860 | -84.54536 | 34944 ft | 509 kts | 66° |
| 2026-05-05 02:25 | 36.83325 | -84.46318 | 34939 ft | 509 kts | 66° |
| 2026-05-05 02:25 | 36.85819 | -84.38052 | 34941 ft | 509 kts | 66° |
| 2026-05-05 02:26 | 36.88308 | -84.29783 | 34971 ft | 508 kts | 66° |
| 2026-05-05 02:26 | 36.90780 | -84.21515 | 34968 ft | 508 kts | 66° |
| 2026-05-05 02:26 | 36.92000 | -84.17412 | 35383 ft | 496 kts | 66° |
| 2026-05-05 02:27 | 36.93203 | -84.13366 | 35520 ft | 499 kts | 66° |
| 2026-05-05 02:27 | 36.94422 | -84.09274 | 35399 ft | 505 kts | 66° |
| 2026-05-05 02:27 | 36.95649 | -84.05156 | 35300 ft | 506 kts | 66° |
| 2026-05-05 02:28 | 36.98107 | -83.96883 | 35120 ft | 508 kts | 66° |
| 2026-05-05 02:28 | 36.99331 | -83.92743 | 34899 ft | 508 kts | 66° |
| 2026-05-05 02:28 | 37.00554 | -83.88601 | 34948 ft | 508 kts | 67° |
| 2026-05-05 02:29 | 37.02997 | -83.80314 | 34945 ft | 508 kts | 67° |
| 2026-05-05 02:29 | 37.05431 | -83.72016 | 34947 ft | 508 kts | 67° |
| 2026-05-05 02:30 | 37.07852 | -83.63726 | 34941 ft | 507 kts | 67° |
| 2026-05-05 02:30 | 37.10270 | -83.55436 | 34949 ft | 507 kts | 67° |
| 2026-05-05 02:31 | 37.12694 | -83.47140 | 34952 ft | 507 kts | 67° |
| 2026-05-05 02:31 | 37.15113 | -83.38828 | 34961 ft | 508 kts | 68° |
| 2026-05-05 02:32 | 37.17520 | -83.30506 | 34967 ft | 507 kts | 68° |
| 2026-05-05 02:32 | 37.19921 | -83.22193 | 34971 ft | 508 kts | 68° |
| 2026-05-05 02:33 | 37.22327 | -83.13859 | 34975 ft | 508 kts | 68° |
| 2026-05-05 02:33 | 37.24704 | -83.05512 | 34964 ft | 508 kts | 68° |
| 2026-05-05 02:34 | 37.27090 | -82.97153 | 34985 ft | 509 kts | 68° |
| 2026-05-05 02:34 | 37.28744 | -82.88535 | 34971 ft | 512 kts | 84° |
| 2026-05-05 02:35 | 37.29333 | -82.79627 | 34969 ft | 512 kts | 84° |
| 2026-05-05 02:35 | 37.29895 | -82.70700 | 34960 ft | 513 kts | 84° |
| 2026-05-05 02:36 | 37.30451 | -82.61758 | 34958 ft | 514 kts | 84° |
| 2026-05-05 02:36 | 37.31004 | -82.52808 | 34940 ft | 514 kts | 84° |
| 2026-05-05 02:37 | 37.31547 | -82.43865 | 34933 ft | 514 kts | 84° |
| 2026-05-05 02:37 | 37.32088 | -82.34918 | 34945 ft | 514 kts | 85° |
| 2026-05-05 02:38 | 37.32619 | -82.26023 | 34941 ft | 514 kts | 85° |
| 2026-05-05 02:38 | 37.33151 | -82.16998 | 34939 ft | 514 kts | 85° |
| 2026-05-05 02:39 | 37.33668 | -82.08098 | 34946 ft | 514 kts | 85° |
| 2026-05-05 02:39 | 37.34196 | -81.99074 | 34943 ft | 515 kts | 85° |
| 2026-05-05 02:40 | 37.34702 | -81.90170 | 34944 ft | 514 kts | 85° |
| 2026-05-05 02:40 | 37.35206 | -81.81201 | 34945 ft | 514 kts | 85° |
| 2026-05-05 02:41 | 37.35701 | -81.72236 | 34966 ft | 515 kts | 85° |
| 2026-05-05 02:41 | 37.36190 | -81.63248 | 34973 ft | 515 kts | 85° |
| 2026-05-05 02:42 | 37.36675 | -81.54256 | 35007 ft | 516 kts | 85° |
| 2026-05-05 02:42 | 37.37154 | -81.45254 | 35035 ft | 516 kts | 85° |
| 2026-05-05 02:43 | 37.37627 | -81.36246 | 35052 ft | 516 kts | 85° |
| 2026-05-05 02:43 | 37.38090 | -81.27237 | 35065 ft | 516 kts | 85° |
| 2026-05-05 02:44 | 37.38539 | -81.18218 | 35064 ft | 517 kts | 85° |
| 2026-05-05 02:44 | 37.38992 | -81.09195 | 35067 ft | 517 kts | 85° |
| 2026-05-05 02:45 | 37.39439 | -81.00175 | 35048 ft | 517 kts | 86° |
| 2026-05-05 02:45 | 37.39876 | -80.91157 | 35030 ft | 517 kts | 86° |
| 2026-05-05 02:46 | 37.40306 | -80.82146 | 35014 ft | 516 kts | 86° |
| 2026-05-05 02:46 | 37.40726 | -80.73131 | 35007 ft | 516 kts | 86° |
| 2026-05-05 02:47 | 37.41145 | -80.64129 | 35006 ft | 516 kts | 86° |
| 2026-05-05 02:47 | 37.41554 | -80.55120 | 35014 ft | 516 kts | 86° |
| 2026-05-05 02:48 | 37.41949 | -80.46179 | 35006 ft | 515 kts | 86° |
| 2026-05-05 02:48 | 37.42346 | -80.37177 | 35016 ft | 515 kts | 86° |
| 2026-05-05 02:49 | 37.42736 | -80.28176 | 35023 ft | 515 kts | 86° |
| 2026-05-05 02:49 | 37.43113 | -80.19171 | 35037 ft | 515 kts | 86° |
| 2026-05-05 02:50 | 37.43486 | -80.10175 | 35042 ft | 515 kts | 86° |
| 2026-05-05 02:50 | 37.43788 | -80.02635 | 35050 ft | 515 kts | 86° |
| 2026-05-05 02:51 | 37.44215 | -79.92175 | 35045 ft | 515 kts | 86° |
| 2026-05-05 02:51 | 37.44514 | -79.84645 | 35042 ft | 515 kts | 86° |
| 2026-05-05 02:52 | 37.44861 | -79.75651 | 35032 ft | 515 kts | 86° |
| 2026-05-05 02:52 | 37.45201 | -79.66656 | 35008 ft | 514 kts | 86° |
| 2026-05-05 02:53 | 37.45536 | -79.57666 | 35006 ft | 514 kts | 86° |
| 2026-05-05 02:53 | 37.45861 | -79.48745 | 35012 ft | 514 kts | 86° |
| 2026-05-05 02:54 | 37.46176 | -79.39692 | 35028 ft | 514 kts | 86° |
| 2026-05-05 02:54 | 37.46488 | -79.30771 | 35029 ft | 514 kts | 86° |
| 2026-05-05 02:55 | 37.46797 | -79.21785 | 35032 ft | 513 kts | 87° |
| 2026-05-05 02:55 | 37.47098 | -79.12812 | 35028 ft | 513 kts | 87° |
| 2026-05-05 02:56 | 37.47390 | -79.03838 | 35022 ft | 512 kts | 87° |
| 2026-05-05 02:56 | 37.47671 | -78.94883 | 35015 ft | 512 kts | 87° |
| 2026-05-05 02:57 | 37.47952 | -78.85930 | 35004 ft | 512 kts | 87° |
| 2026-05-05 02:57 | 37.48223 | -78.76979 | 35002 ft | 512 kts | 87° |
| 2026-05-05 02:58 | 37.48488 | -78.68021 | 35006 ft | 512 kts | 87° |
| 2026-05-05 02:58 | 37.48748 | -78.59077 | 35010 ft | 511 kts | 87° |
| 2026-05-05 02:59 | 37.48993 | -78.50134 | 35012 ft | 511 kts | 87° |
| 2026-05-05 02:59 | 37.49236 | -78.41297 | 35018 ft | 510 kts | 87° |
| 2026-05-05 03:00 | 37.49476 | -78.32280 | 35008 ft | 510 kts | 87° |
| 2026-05-05 03:00 | 37.49709 | -78.23352 | 35007 ft | 510 kts | 87° |
| 2026-05-05 03:01 | 37.49929 | -78.14422 | 35002 ft | 510 kts | 87° |
| 2026-05-05 03:01 | 37.50142 | -78.05490 | 35003 ft | 510 kts | 87° |
| 2026-05-05 03:02 | 37.50354 | -77.96562 | 35006 ft | 510 kts | 88° |
| 2026-05-05 03:02 | 37.50560 | -77.87639 | 35016 ft | 510 kts | 87° |
| 2026-05-05 03:03 | 37.50751 | -77.78714 | 35031 ft | 509 kts | 88° |
| 2026-05-05 03:03 | 37.50938 | -77.69806 | 35030 ft | 509 kts | 88° |
| 2026-05-05 03:04 | 37.51121 | -77.60885 | 35032 ft | 509 kts | 88° |
| 2026-05-05 03:04 | 37.51305 | -77.51973 | 35033 ft | 509 kts | 88° |
| 2026-05-05 03:05 | 37.51477 | -77.43058 | 35022 ft | 509 kts | 88° |
| 2026-05-05 03:05 | 37.51634 | -77.34196 | 35026 ft | 509 kts | 88° |
| 2026-05-05 03:06 | 37.51787 | -77.25273 | 35019 ft | 510 kts | 88° |
| 2026-05-05 03:06 | 37.51944 | -77.16344 | 35019 ft | 510 kts | 88° |
| 2026-05-05 03:07 | 37.52091 | -77.07400 | 35015 ft | 511 kts | 88° |
| 2026-05-05 03:07 | 37.52222 | -76.98452 | 35012 ft | 511 kts | 88° |
| 2026-05-05 03:08 | 37.52356 | -76.89501 | 35020 ft | 511 kts | 88° |
| 2026-05-05 03:08 | 37.52479 | -76.80550 | 35043 ft | 511 kts | 88° |
| 2026-05-05 03:09 | 37.52597 | -76.71603 | 35045 ft | 511 kts | 89° |
| 2026-05-05 03:09 | 37.52698 | -76.62647 | 35044 ft | 511 kts | 89° |
| 2026-05-05 03:10 | 37.52788 | -76.53702 | 35038 ft | 511 kts | 89° |
| 2026-05-05 03:10 | 37.52889 | -76.44752 | 35032 ft | 511 kts | 89° |
| 2026-05-05 03:11 | 37.52980 | -76.35817 | 35042 ft | 510 kts | 89° |
| 2026-05-05 03:11 | 37.53061 | -76.26886 | 35037 ft | 510 kts | 89° |
| 2026-05-05 03:12 | 37.53136 | -76.17956 | 35045 ft | 510 kts | 89° |
| 2026-05-05 03:12 | 37.53206 | -76.09036 | 35051 ft | 509 kts | 89° |
| 2026-05-05 03:13 | 37.53261 | -76.00108 | 35050 ft | 509 kts | 89° |
| 2026-05-05 03:13 | 37.53540 | -75.95671 | 35044 ft | 508 kts | 78° |
| 2026-05-05 03:13 | 37.54439 | -75.91386 | 35041 ft | 505 kts | 67° |
| 2026-05-05 03:13 | 37.55921 | -75.87407 | 35038 ft | 501 kts | 56° |
| 2026-05-05 03:14 | 37.57928 | -75.83855 | 35034 ft | 496 kts | 45° |
| 2026-05-05 03:14 | 37.60383 | -75.80840 | 35034 ft | 490 kts | 34° |
| 2026-05-05 03:14 | 37.63180 | -75.78443 | 35036 ft | 485 kts | 26° |
| 2026-05-05 03:15 | 37.68952 | -75.74145 | 35036 ft | 485 kts | 26° |
| 2026-05-05 03:15 | 37.74754 | -75.69783 | 35040 ft | 486 kts | 27° |
| 2026-05-05 03:16 | 37.80551 | -75.65407 | 35025 ft | 481 kts | 27° |
| 2026-05-05 03:16 | 37.86184 | -75.61078 | 35016 ft | 472 kts | 29° |
| 2026-05-05 03:17 | 37.91619 | -75.56410 | 35016 ft | 472 kts | 31° |
| 2026-05-05 03:17 | 37.96973 | -75.51582 | 35007 ft | 472 kts | 31° |
| 2026-05-05 03:18 | 38.02355 | -75.46797 | 35008 ft | 472 kts | 31° |
| 2026-05-05 03:18 | 38.07790 | -75.42119 | 35012 ft | 472 kts | 30° |
| 2026-05-05 03:19 | 38.16111 | -75.35419 | 35018 ft | 473 kts | 28° |
| 2026-05-05 03:19 | 38.21677 | -75.30944 | 35031 ft | 473 kts | 27° |
| 2026-05-05 03:20 | 38.27649 | -75.27699 | 35031 ft | 464 kts | 10° |
| 2026-05-05 03:20 | 38.33965 | -75.26265 | 35027 ft | 461 kts | 5° |
| 2026-05-05 03:21 | 38.40293 | -75.24937 | 35027 ft | 461 kts | 5° |
| 2026-05-05 03:21 | 38.46625 | -75.23610 | 35034 ft | 461 kts | 6° |
| 2026-05-05 03:22 | 38.52958 | -75.22276 | 35027 ft | 461 kts | 6° |
| 2026-05-05 03:22 | 38.59291 | -75.20945 | 35028 ft | 461 kts | 6° |
| 2026-05-05 03:23 | 38.65615 | -75.19606 | 35029 ft | 461 kts | 7° |
| 2026-05-05 03:23 | 38.71691 | -75.16922 | 35004 ft | 464 kts | 26° |
| 2026-05-05 03:24 | 38.76824 | -75.12255 | 34993 ft | 463 kts | 35° |
| 2026-05-05 03:24 | 38.81985 | -75.07209 | 34989 ft | 469 kts | 34° |
| 2026-05-05 03:25 | 38.87184 | -75.02129 | 34993 ft | 469 kts | 34° |
| 2026-05-05 03:25 | 38.92364 | -74.97025 | 34989 ft | 469 kts | 35° |
| 2026-05-05 03:26 | 38.97539 | -74.91917 | 34998 ft | 470 kts | 35° |
| 2026-05-05 03:26 | 39.02727 | -74.86804 | 35002 ft | 470 kts | 35° |
| 2026-05-05 03:27 | 39.07907 | -74.81673 | 35014 ft | 470 kts | 35° |
| 2026-05-05 03:27 | 39.13037 | -74.76441 | 35012 ft | 470 kts | 37° |
| 2026-05-05 03:28 | 39.15547 | -74.73737 | 34759 ft | 473 kts | 38° |
| 2026-05-05 03:28 | 39.18072 | -74.70968 | 33797 ft | 479 kts | 38° |
| 2026-05-05 03:28 | 39.20613 | -74.68163 | 32883 ft | 479 kts | 38° |
| 2026-05-05 03:28 | 39.23117 | -74.65405 | 31900 ft | 471 kts | 38° |
| 2026-05-05 03:29 | 39.25609 | -74.62672 | 30946 ft | 470 kts | 39° |
| 2026-05-05 03:29 | 39.28111 | -74.59951 | 29999 ft | 470 kts | 39° |
| 2026-05-05 03:29 | 39.30620 | -74.57236 | 28917 ft | 472 kts | 38° |
| 2026-05-05 03:29 | 39.33143 | -74.54511 | 27877 ft | 475 kts | 38° |
| 2026-05-05 03:30 | 39.35684 | -74.51764 | 26864 ft | 477 kts | 38° |
| 2026-05-05 03:30 | 39.38254 | -74.48974 | 25880 ft | 484 kts | 39° |
| 2026-05-05 03:30 | 39.40830 | -74.46165 | 24919 ft | 485 kts | 39° |
| 2026-05-05 03:30 | 39.43411 | -74.43347 | 24002 ft | 486 kts | 38° |
| 2026-05-05 03:31 | 39.45999 | -74.40521 | 23008 ft | 486 kts | 38° |
| 2026-05-05 03:31 | 39.48582 | -74.37697 | 22069 ft | 484 kts | 38° |
| 2026-05-05 03:31 | 39.51125 | -74.34913 | 21416 ft | 476 kts | 38° |
| 2026-05-05 03:31 | 39.53640 | -74.32154 | 20776 ft | 470 kts | 38° |
| 2026-05-05 03:32 | 39.56127 | -74.29422 | 20158 ft | 467 kts | 38° |
| 2026-05-05 03:32 | 39.58596 | -74.26708 | 19541 ft | 464 kts | 38° |
| 2026-05-05 03:32 | 39.61047 | -74.24015 | 18947 ft | 461 kts | 38° |
| 2026-05-05 03:32 | 39.63483 | -74.21339 | 18362 ft | 458 kts | 38° |
| 2026-05-05 03:33 | 39.65874 | -74.18713 | 17712 ft | 455 kts | 38° |
| 2026-05-05 03:33 | 39.68279 | -74.16075 | 17054 ft | 450 kts | 38° |
| 2026-05-05 03:33 | 39.70659 | -74.13460 | 16408 ft | 446 kts | 38° |
| 2026-05-05 03:33 | 39.73012 | -74.10864 | 15775 ft | 442 kts | 38° |
| 2026-05-05 03:34 | 39.75340 | -74.08288 | 15158 ft | 437 kts | 38° |
| 2026-05-05 03:34 | 39.77643 | -74.05737 | 14567 ft | 433 kts | 38° |
| 2026-05-05 03:34 | 39.79924 | -74.03210 | 13988 ft | 429 kts | 38° |
| 2026-05-05 03:34 | 39.82188 | -74.00702 | 13337 ft | 425 kts | 38° |
| 2026-05-05 03:35 | 39.84529 | -73.98410 | 12888 ft | 417 kts | 30° |
| 2026-05-05 03:35 | 39.86934 | -73.96584 | 12486 ft | 383 kts | 25° |
| 2026-05-05 03:35 | 39.89179 | -73.94997 | 12163 ft | 352 kts | 25° |
| 2026-05-05 03:35 | 39.91236 | -73.93533 | 11967 ft | 322 kts | 25° |
| 2026-05-05 03:36 | 39.93151 | -73.92168 | 11798 ft | 310 kts | 24° |
| 2026-05-05 03:36 | 39.94426 | -73.91264 | 11676 ft | 308 kts | 25° |
| 2026-05-05 03:36 | 39.96308 | -73.89938 | 11505 ft | 308 kts | 24° |
| 2026-05-05 03:36 | 39.98191 | -73.88614 | 11332 ft | 306 kts | 24° |
| 2026-05-05 03:37 | 40.00062 | -73.87315 | 11174 ft | 304 kts | 21° |
| 2026-05-05 03:37 | 40.01995 | -73.86240 | 11032 ft | 300 kts | 15° |
| 2026-05-05 03:37 | 40.03981 | -73.85459 | 10980 ft | 297 kts | 8° |
| 2026-05-05 03:37 | 40.06002 | -73.84887 | 10984 ft | 297 kts | 8° |
| 2026-05-05 03:38 | 40.08038 | -73.84312 | 10599 ft | 302 kts | 8° |
| 2026-05-05 03:38 | 40.10087 | -73.83726 | 9997 ft | 301 kts | 8° |
| 2026-05-05 03:38 | 40.12128 | -73.83139 | 9346 ft | 300 kts | 8° |
| 2026-05-05 03:38 | 40.14166 | -73.82554 | 8694 ft | 299 kts | 8° |
| 2026-05-05 03:39 | 40.16195 | -73.81972 | 8057 ft | 299 kts | 8° |
| 2026-05-05 03:39 | 40.18227 | -73.81390 | 7431 ft | 298 kts | 8° |
| 2026-05-05 03:39 | 40.20230 | -73.80816 | 6807 ft | 291 kts | 8° |
| 2026-05-05 03:39 | 40.22180 | -73.80255 | 6193 ft | 284 kts | 8° |
| 2026-05-05 03:40 | 40.24104 | -73.79702 | 5560 ft | 283 kts | 8° |
| 2026-05-05 03:40 | 40.26033 | -73.79149 | 4940 ft | 284 kts | 8° |
| 2026-05-05 03:40 | 40.27961 | -73.78594 | 4309 ft | 284 kts | 8° |
| 2026-05-05 03:40 | 40.29889 | -73.78038 | 3672 ft | 283 kts | 8° |
| 2026-05-05 03:41 | 40.31783 | -73.77494 | 3118 ft | 281 kts | 9° |
| 2026-05-05 03:41 | 40.33699 | -73.76941 | 2832 ft | 282 kts | 9° |
| 2026-05-05 03:41 | 40.35624 | -73.76386 | 2755 ft | 284 kts | 9° |
| 2026-05-05 03:41 | 40.37587 | -73.75820 | 2674 ft | 285 kts | 9° |
| 2026-05-05 03:42 | 40.39527 | -73.75262 | 2594 ft | 285 kts | 9° |
| 2026-05-05 03:42 | 40.41466 | -73.74704 | 2541 ft | 286 kts | 9° |
| 2026-05-05 03:42 | 40.43404 | -73.74144 | 2767 ft | 285 kts | 9° |
| 2026-05-05 03:42 | 40.45347 | -73.73581 | 2921 ft | 286 kts | 9° |
| 2026-05-05 03:43 | 40.47265 | -73.73026 | 2963 ft | 286 kts | 9° |
| 2026-05-05 03:43 | 40.49206 | -73.72462 | 2952 ft | 285 kts | 9° |
| 2026-05-05 03:43 | 40.51148 | -73.71899 | 2953 ft | 285 kts | 9° |
| 2026-05-05 03:43 | 40.53087 | -73.71337 | 2961 ft | 286 kts | 9° |
| 2026-05-05 03:44 | 40.55030 | -73.70775 | 2962 ft | 286 kts | 9° |
| 2026-05-05 03:44 | 40.56969 | -73.70212 | 2962 ft | 286 kts | 9° |
| 2026-05-05 03:44 | 40.58911 | -73.69648 | 2962 ft | 285 kts | 9° |
| 2026-05-05 03:44 | 40.60848 | -73.69084 | 2964 ft | 285 kts | 9° |
| 2026-05-05 03:45 | 40.62813 | -73.68510 | 2953 ft | 285 kts | 9° |
| 2026-05-05 03:45 | 40.64721 | -73.67951 | 2959 ft | 285 kts | 9° |
| 2026-05-05 03:45 | 40.66661 | -73.67383 | 2963 ft | 286 kts | 9° |
| 2026-05-05 03:45 | 40.68599 | -73.66818 | 2967 ft | 286 kts | 9° |
| 2026-05-05 03:46 | 40.70452 | -73.66279 | 2966 ft | 285 kts | 9° |
| 2026-05-05 03:46 | 40.72376 | -73.65720 | 2949 ft | 278 kts | 9° |
| 2026-05-05 03:46 | 40.74210 | -73.65183 | 2953 ft | 262 kts | 9° |
| 2026-05-05 03:46 | 40.75920 | -73.64679 | 2968 ft | 245 kts | 8° |
| 2026-05-05 03:47 | 40.77579 | -73.64194 | 2958 ft | 238 kts | 8° |
| 2026-05-05 03:47 | 40.79134 | -73.63736 | 2953 ft | 218 kts | 8° |
| 2026-05-05 03:47 | 40.80544 | -73.63541 | 2849 ft | 192 kts | 343° |
| 2026-05-05 03:47 | 40.81638 | -73.64186 | 2762 ft | 159 kts | 311° |
| 2026-05-05 03:48 | 40.82266 | -73.65269 | 2640 ft | 141 kts | 284° |
| 2026-05-05 03:48 | 40.82457 | -73.66498 | 2505 ft | 134 kts | 261° |
| 2026-05-05 03:48 | 40.82257 | -73.67688 | 2398 ft | 134 kts | 241° |
| 2026-05-05 03:48 | 40.81701 | -73.68686 | 2260 ft | 138 kts | 221° |
| 2026-05-05 03:49 | 40.80862 | -73.69307 | 2128 ft | 141 kts | 200° |
| 2026-05-05 03:49 | 40.79881 | -73.69415 | 2013 ft | 143 kts | 181° |
| 2026-05-05 03:49 | 40.78899 | -73.69325 | 1939 ft | 140 kts | 182° |
| 2026-05-05 03:49 | 40.77940 | -73.69242 | 1878 ft | 139 kts | 181° |
| 2026-05-05 03:50 | 40.76961 | -73.69159 | 1826 ft | 139 kts | 182° |
| 2026-05-05 03:50 | 40.76000 | -73.69077 | 1805 ft | 138 kts | 182° |
| 2026-05-05 03:50 | 40.75039 | -73.68997 | 1806 ft | 138 kts | 182° |
| 2026-05-05 03:50 | 40.74080 | -73.68915 | 1806 ft | 139 kts | 182° |
| 2026-05-05 03:51 | 40.73124 | -73.68947 | 1803 ft | 136 kts | 194° |
| 2026-05-05 03:51 | 40.72262 | -73.69461 | 1729 ft | 138 kts | 212° |
| 2026-05-05 03:51 | 40.71425 | -73.70101 | 1581 ft | 139 kts | 210° |
| 2026-05-05 03:51 | 40.70586 | -73.70747 | 1410 ft | 140 kts | 210° |
| 2026-05-05 03:52 | 40.69755 | -73.71393 | 1232 ft | 137 kts | 210° |
| 2026-05-05 03:52 | 40.68956 | -73.72017 | 1046 ft | 131 kts | 210° |
| 2026-05-05 03:52 | 40.68193 | -73.72613 | 877 ft | 130 kts | 208° |
| 2026-05-05 03:52 | 40.67413 | -73.73223 | 717 ft | 131 kts | 210° |
| 2026-05-05 03:53 | 40.66617 | -73.73846 | 528 ft | 134 kts | 208° |
| 2026-05-05 03:53 | 40.65808 | -73.74473 | 333 ft | 136 kts | 206° |
| 2026-05-05 03:53 | 40.65006 | -73.75114 | 199 ft | 135 kts | 209° |
| 2026-05-05 03:53 | 40.64207 | -73.75747 | 38 ft | 129 kts | 208° |
| 2026-05-05 03:54 | 40.63563 | -73.76232 | 22 ft | 70 kts | 210° |
| 2026-05-05 03:54 | 40.63373 | -73.76383 | 23 ft | 19 kts | 215° |
| 2026-05-05 03:54 | 40.63259 | -73.76574 | 22 ft | 27 kts | 244° |
| 2026-05-05 03:54 | 40.63247 | -73.76608 | 22 ft | 4 kts | 245° |
| 2026-05-05 03:55 | 40.63242 | -73.76713 | 19 ft | 9 kts | 290° |
| 2026-05-05 03:55 | 40.63275 | -73.76798 | 20 ft | 11 kts | 300° |
| 2026-05-05 03:55 | 40.63312 | -73.76882 | 21 ft | 11 kts | 301° |
| 2026-05-05 03:55 | 40.63362 | -73.76993 | 22 ft | 18 kts | 301° |
| 2026-05-05 03:56 | 40.63426 | -73.77134 | 24 ft | 18 kts | 303° |
| 2026-05-05 03:56 | 40.63484 | -73.77254 | 24 ft | 6 kts | 313° |
| 2026-05-05 03:56 | 40.63514 | -73.77324 | 23 ft | 11 kts | 297° |
| 2026-05-05 03:56 | 40.63548 | -73.77401 | 23 ft | 10 kts | 301° |
| 2026-05-05 03:57 | 40.63601 | -73.77521 | 22 ft | 19 kts | 300° |
| 2026-05-05 03:57 | 40.63663 | -73.77640 | 20 ft | 14 kts | 304° |
| 2026-05-05 03:57 | 40.63717 | -73.77660 | 20 ft | 8 kts | 15° |
| 2026-05-05 03:57 | 40.63771 | -73.77625 | 20 ft | 10 kts | 32° |
| 2026-05-05 03:58 | 40.63834 | -73.77570 | 19 ft | 12 kts | 30° |
| 2026-05-05 03:58 | 40.63907 | -73.77513 | 21 ft | 12 kts | 31° |
| 2026-05-05 03:58 | 40.63990 | -73.77448 | 22 ft | 17 kts | 31° |
| 2026-05-05 03:58 | 40.64090 | -73.77468 | 23 ft | 16 kts | 300° |
| 2026-05-05 03:59 | 40.64044 | -73.77546 | 23 ft | 12 kts | 199° |
| 2026-05-05 03:59 | 40.63984 | -73.77627 | 23 ft | 13 kts | 239° |
| 2026-05-05 03:59 | 40.63948 | -73.77746 | 23 ft | 15 kts | 245° |
| 2026-05-05 03:59 | 40.63930 | -73.77859 | 25 ft | 9 kts | 311° |
| 2026-05-05 04:00 | 40.63984 | -73.77879 | 23 ft | 9 kts | 348° |
| 2026-05-05 04:00 | 40.64021 | -73.77891 | 23 ft | 2 kts | 345° |
| 2026-05-05 04:00 | 40.64042 | -73.77899 | 23 ft | 4 kts | 345° |
| 2026-05-05 04:00 | 40.64077 | -73.77911 | 23 ft | 6 kts | 345° |
| 2026-05-05 04:01 | 40.64124 | -73.77927 | 23 ft | 8 kts | 345° |
| 2026-05-05 04:01 | 40.64173 | -73.77909 | 23 ft | 8 kts | 31° |
| 2026-05-05 04:01 | 40.64201 | -73.77898 | 24 ft | 0 kts | 43° |
| 2026-05-05 04:01 | 40.64203 | -73.77894 | 23 ft | 1 kts | 43° |
| 2026-05-05 04:02 | 40.64187 | -73.77902 | 23 ft | 2 kts | 44° |
| 2026-05-05 04:02 | 40.64209 | -73.77874 | 23 ft | 2 kts | 33° |
| 2026-05-05 04:02 | 40.64223 | -73.77865 | 23 ft | 0 kts | 26° |